Time;durP1;ratioP1;P1;durP2;ratioP2;P2;SDS_P1;SDS_P2;PMS_P1;PMS_P2;Temp;Humidity;BMP_temperature;BMP_pressure;BME280_temperature;BME280_humidity;BME280_pressure;Samples;Min_cycle;Max_cycle;Signal;HPM_P1;HPM_P2
2021/10/18 00:00:39;;;;;;;41.80;19.17;;;;;;;;;;5054685;28;20049;-81
2021/10/18 00:03:06;;;;;;;41.08;18.23;;;;;;;;;;5055194;28;20059;-80
2021/10/18 00:05:34;;;;;;;38.25;18.58;;;;;;;;;;5055208;28;20659;-81
2021/10/18 00:08:01;;;;;;;38.08;17.80;;;;;;;;;;5055322;28;20041;-81
2021/10/18 00:10:27;;;;;;;34.67;17.73;;;;;;;;;;5051275;28;20041;-81
2021/10/18 00:12:55;;;;;;;50.60;22.08;;;;;;;;;;5055125;28;20041;-81
2021/10/18 00:15:21;;;;;;;51.45;20.52;;;;;;;;;;5055559;28;20120;-81
2021/10/18 00:17:48;;;;;;;38.20;18.88;;;;;;;;;;5055333;28;20079;-81
2021/10/18 00:20:17;;;;;;;43.20;18.52;;;;;;;;;;5055209;28;20052;-81
2021/10/18 00:22:46;;;;;;;37.42;19.00;;;;;;;;;;5055071;28;20041;-81
2021/10/18 00:25:12;;;;;;;41.80;17.70;;;;;;;;;;5055052;28;20102;-81
2021/10/18 00:27:39;;;;;;;40.63;19.42;;;;;;;;;;5053726;28;20041;-81
2021/10/18 00:30:07;;;;;;;38.50;19.15;;;;;;;;;;5054229;28;20056;-81
2021/10/18 00:32:34;;;;;;;40.20;19.08;;;;;;;;;;5055122;28;20059;-81
2021/10/18 00:35:01;;;;;;;50.65;19.25;;;;;;;;;;5054970;28;20049;-81
2021/10/18 00:37:27;;;;;;;45.45;21.38;;;;;;;;;;5054522;28;20040;-81
2021/10/18 00:39:55;;;;;;;40.10;18.75;;;;;;;;;;5054384;28;20110;-81
2021/10/18 00:42:22;;;;;;;40.75;19.08;;;;;;;;;;5054142;28;20445;-81
2021/10/18 00:44:50;;;;;;;35.15;18.33;;;;;;;;;;5054626;28;20048;-81
2021/10/18 00:47:17;;;;;;;41.88;19.95;;;;;;;;;;5054119;28;20044;-81
2021/10/18 00:49:44;;;;;;;42.33;19.90;;;;;;;;;;5053889;28;20049;-81
2021/10/18 00:52:11;;;;;;;45.03;18.90;;;;;;;;;;5054409;28;20401;-81
2021/10/18 00:54:37;;;;;;;40.17;18.08;;;;;;;;;;5054308;28;20037;-81
2021/10/18 00:57:05;;;;;;;40.85;20.02;;;;;;;;;;5053822;28;20432;-81
2021/10/18 00:59:33;;;;;;;33.88;17.35;;;;;;;;;;5054580;28;20045;-81
2021/10/18 01:02:00;;;;;;;50.53;19.52;;;;;;;;;;5054140;28;20079;-81
2021/10/18 01:04:26;;;;;;;36.40;18.10;;;;;;;;;;5058504;23;20045;-80
2021/10/18 01:06:53;;;;;;;39.95;18.65;;;;;;;;;;5033981;28;20053;-78
2021/10/18 01:09:19;;;;;;;38.53;18.50;;;;;;;;;;5034271;28;20056;-78
2021/10/18 01:11:46;;;;;;;32.90;16.17;;;;;;;;;;5033653;28;20453;-78
2021/10/18 01:14:14;;;;;;;43.28;19.20;;;;;;;;;;5034348;28;20111;-79
2021/10/18 01:16:40;;;;;;;41.78;18.63;;;;;;;;;;5034126;28;20054;-78
2021/10/18 01:19:11;;;;;;;39.03;18.27;;;;;;;;;;5033973;28;20046;-78
2021/10/18 01:21:39;;;;;;;34.83;17.38;;;;;;;;;;5033658;28;20469;-78
2021/10/18 01:24:06;;;;;;;41.00;18.20;;;;;;;;;;5034120;28;20072;-78
2021/10/18 01:26:32;;;;;;;36.60;17.73;;;;;;;;;;5034381;28;20103;-78
2021/10/18 01:28:59;;;;;;;35.95;17.38;;;;;;;;;;5033210;28;20522;-79
2021/10/18 01:31:25;;;;;;;38.08;18.00;;;;;;;;;;5020792;28;20049;-78
2021/10/18 01:33:52;;;;;;;32.65;16.92;;;;;;;;;;5036988;28;20041;-77
2021/10/18 01:36:18;;;;;;;38.20;18.10;;;;;;;;;;5035424;28;20076;-78
2021/10/18 01:38:46;;;;;;;36.13;18.48;;;;;;;;;;5034917;28;20055;-78
2021/10/18 01:41:13;;;;;;;40.88;18.92;;;;;;;;;;5044792;28;20049;-77
2021/10/18 01:43:40;;;;;;;33.75;16.70;;;;;;;;;;5037680;28;20079;-80
2021/10/18 01:46:06;;;;;;;33.60;17.98;;;;;;;;;;5027305;28;20045;-77
2021/10/18 01:48:33;;;;;;;47.45;19.60;;;;;;;;;;5021957;28;20046;-80
2021/10/18 01:50:59;;;;;;;39.90;19.05;;;;;;;;;;5029899;28;20046;-78
2021/10/18 01:53:26;;;;;;;36.85;18.60;;;;;;;;;;5037836;28;20045;-80
2021/10/18 01:55:53;;;;;;;51.35;22.27;;;;;;;;;;5038615;28;20057;-78
2021/10/18 01:58:20;;;;;;;45.35;18.70;;;;;;;;;;5038598;28;20567;-82
2021/10/18 02:00:46;;;;;;;41.15;19.20;;;;;;;;;;5037370;28;20057;-79
2021/10/18 02:03:13;;;;;;;36.65;18.08;;;;;;;;;;5037050;28;20567;-78
2021/10/18 02:05:39;;;;;;;46.20;20.48;;;;;;;;;;5037521;28;20103;-78
2021/10/18 02:08:05;;;;;;;41.20;19.60;;;;;;;;;;5037595;28;20390;-82
2021/10/18 02:10:32;;;;;;;50.35;19.40;;;;;;;;;;5038080;28;20430;-78
2021/10/18 02:13:00;;;;;;;41.88;18.65;;;;;;;;;;5038417;28;20050;-78
2021/10/18 02:15:26;;;;;;;39.33;18.67;;;;;;;;;;5037534;28;20374;-80
2021/10/18 02:17:53;;;;;;;40.08;17.60;;;;;;;;;;5037119;28;20104;-78
2021/10/18 02:20:19;;;;;;;39.35;18.25;;;;;;;;;;5037228;28;20060;-78
2021/10/18 02:22:45;;;;;;;40.78;17.80;;;;;;;;;;5037693;28;20053;-78
2021/10/18 02:25:13;;;;;;;40.83;18.60;;;;;;;;;;5032811;28;20498;-78
2021/10/18 02:27:39;;;;;;;45.05;18.92;;;;;;;;;;5037713;28;20049;-78
2021/10/18 02:30:10;;;;;;;42.33;19.95;;;;;;;;;;5037338;28;20045;-80
2021/10/18 02:32:36;;;;;;;35.67;16.73;;;;;;;;;;5037659;28;20522;-78
2021/10/18 02:35:02;;;;;;;35.78;17.25;;;;;;;;;;5036739;28;20107;-77
2021/10/18 02:37:29;;;;;;;41.90;20.02;;;;;;;;;;5037256;28;20048;-78
2021/10/18 02:39:55;;;;;;;33.70;16.00;;;;;;;;;;5036496;28;20049;-77
2021/10/18 02:42:22;;;;;;;35.35;17.25;;;;;;;;;;5038358;28;20045;-79
2021/10/18 02:44:48;;;;;;;42.85;19.13;;;;;;;;;;5036983;28;20076;-79
2021/10/18 02:47:16;;;;;;;37.10;17.58;;;;;;;;;;5037574;28;20053;-79
2021/10/18 02:49:42;;;;;;;49.10;21.77;;;;;;;;;;5036632;28;20049;-80
2021/10/18 02:52:09;;;;;;;33.13;16.52;;;;;;;;;;5037959;28;20049;-79
2021/10/18 02:54:35;;;;;;;39.47;18.10;;;;;;;;;;5036954;28;20405;-80
2021/10/18 02:57:02;;;;;;;51.03;21.00;;;;;;;;;;5032111;28;20046;-79
2021/10/18 02:59:28;;;;;;;36.17;17.80;;;;;;;;;;5036104;28;20037;-79
2021/10/18 03:01:55;;;;;;;45.92;19.48;;;;;;;;;;5033697;28;20457;-79
2021/10/18 03:04:23;;;;;;;38.50;17.85;;;;;;;;;;5036520;28;20053;-78
2021/10/18 03:06:49;;;;;;;45.20;18.90;;;;;;;;;;5028147;28;20399;-79
2021/10/18 03:09:15;;;;;;;33.85;17.52;;;;;;;;;;5036996;28;20049;-79
2021/10/18 03:11:42;;;;;;;43.13;20.85;;;;;;;;;;5035982;28;20099;-79
2021/10/18 03:14:08;;;;;;;39.95;18.13;;;;;;;;;;5037211;28;20049;-78
2021/10/18 03:16:34;;;;;;;48.25;19.73;;;;;;;;;;5036687;28;20058;-79
2021/10/18 03:19:01;;;;;;;43.15;19.45;;;;;;;;;;5035867;28;20530;-79
2021/10/18 03:21:29;;;;;;;45.40;19.58;;;;;;;;;;5035188;28;20049;-79
2021/10/18 03:23:55;;;;;;;40.05;18.73;;;;;;;;;;5036367;28;20099;-79
2021/10/18 03:26:21;;;;;;;51.15;21.75;;;;;;;;;;5036408;28;20052;-79
2021/10/18 03:28:48;;;;;;;41.85;20.60;;;;;;;;;;5036567;28;20053;-79
2021/10/18 03:31:14;;;;;;;40.78;19.23;;;;;;;;;;5035532;28;20061;-79
2021/10/18 03:33:41;;;;;;;43.78;18.90;;;;;;;;;;5035789;28;20438;-79
2021/10/18 03:36:09;;;;;;;39.10;18.58;;;;;;;;;;5036256;28;20057;-79
2021/10/18 03:38:37;;;;;;;35.65;18.00;;;;;;;;;;5036134;28;20050;-80
2021/10/18 03:41:04;;;;;;;35.22;18.15;;;;;;;;;;5036411;28;20053;-79
2021/10/18 03:43:30;;;;;;;56.75;21.58;;;;;;;;;;5036224;28;20049;-79
2021/10/18 03:45:57;;;;;;;53.83;19.85;;;;;;;;;;5046195;28;20498;-79
2021/10/18 03:48:23;;;;;;;49.90;19.52;;;;;;;;;;5046298;28;20044;-78
2021/10/18 03:50:49;;;;;;;39.83;20.05;;;;;;;;;;5042546;28;20041;-79
2021/10/18 03:53:16;;;;;;;43.80;18.20;;;;;;;;;;5035724;28;20041;-79
2021/10/18 03:55:44;;;;;;;40.38;20.23;;;;;;;;;;5035806;28;20052;-79
2021/10/18 03:58:10;;;;;;;40.10;17.90;;;;;;;;;;5035583;28;20111;-78
2021/10/18 04:00:37;;;;;;;43.53;19.67;;;;;;;;;;5036119;28;20467;-79
2021/10/18 04:03:03;;;;;;;41.80;19.88;;;;;;;;;;5035971;28;20099;-80
2021/10/18 04:05:31;;;;;;;33.55;17.20;;;;;;;;;;5035160;28;20037;-78
2021/10/18 04:07:57;;;;;;;41.20;19.98;;;;;;;;;;5034454;28;20057;-79
2021/10/18 04:10:23;;;;;;;38.80;19.10;;;;;;;;;;5035304;28;20049;-79
2021/10/18 04:12:51;;;;;;;38.88;17.20;;;;;;;;;;5035590;28;20053;-79
2021/10/18 04:15:19;;;;;;;38.85;18.45;;;;;;;;;;5035557;28;20057;-79
2021/10/18 04:17:46;;;;;;;43.42;18.95;;;;;;;;;;5036474;28;20044;-79
2021/10/18 04:20:12;;;;;;;40.33;19.08;;;;;;;;;;5035733;28;20053;-79
2021/10/18 04:22:39;;;;;;;49.22;20.15;;;;;;;;;;5035748;28;20037;-80
2021/10/18 04:25:06;;;;;;;46.30;21.08;;;;;;;;;;5036792;28;20045;-78
2021/10/18 04:27:33;;;;;;;34.63;16.90;;;;;;;;;;5035112;28;20505;-80
2021/10/18 04:30:00;;;;;;;46.70;20.58;;;;;;;;;;5035468;28;20041;-79
2021/10/18 04:32:27;;;;;;;43.65;19.23;;;;;;;;;;5025407;28;20215;-79
2021/10/18 04:34:53;;;;;;;36.80;18.58;;;;;;;;;;5026927;28;20057;-79
2021/10/18 04:37:20;;;;;;;47.25;19.35;;;;;;;;;;5033914;28;20692;-79
2021/10/18 04:39:46;;;;;;;42.20;20.02;;;;;;;;;;5026365;28;20119;-79
2021/10/18 04:42:12;;;;;;;41.47;18.50;;;;;;;;;;5030650;28;20053;-80
2021/10/18 04:44:39;;;;;;;40.13;19.58;;;;;;;;;;5029025;28;20198;-79
2021/10/18 04:47:07;;;;;;;39.63;19.30;;;;;;;;;;5034109;28;20057;-79
2021/10/18 04:49:33;;;;;;;38.83;18.88;;;;;;;;;;5034111;28;20052;-80
2021/10/18 04:51:59;;;;;;;42.13;18.85;;;;;;;;;;5033797;28;20103;-80
2021/10/18 04:54:26;;;;;;;41.63;18.00;;;;;;;;;;5031010;28;20046;-78
2021/10/18 04:56:52;;;;;;;40.90;19.52;;;;;;;;;;5033960;28;20095;-81
2021/10/18 04:59:19;;;;;;;43.60;19.17;;;;;;;;;;5033943;28;20042;-79
2021/10/18 05:01:45;;;;;;;41.92;20.17;;;;;;;;;;5033272;28;20099;-80
2021/10/18 05:04:13;;;;;;;39.13;18.60;;;;;;;;;;5033746;28;20091;-81
2021/10/18 05:06:39;;;;;;;37.03;18.60;;;;;;;;;;5033296;28;20068;-80
2021/10/18 05:09:06;;;;;;;48.47;19.38;;;;;;;;;;5033465;28;20498;-81
2021/10/18 05:11:33;;;;;;;36.17;16.58;;;;;;;;;;5024967;28;20037;-80
2021/10/18 05:13:59;;;;;;;36.45;16.77;;;;;;;;;;5036573;28;20046;-80
2021/10/18 05:16:26;;;;;;;40.83;17.75;;;;;;;;;;5038108;28;20041;-81
2021/10/18 05:18:52;;;;;;;42.88;18.58;;;;;;;;;;5037654;28;20108;-79
2021/10/18 05:21:20;;;;;;;34.28;16.25;;;;;;;;;;5040711;28;20049;-81
2021/10/18 05:23:46;;;;;;;34.85;15.65;;;;;;;;;;5043802;28;20049;-80
2021/10/18 05:26:13;;;;;;;38.83;17.05;;;;;;;;;;5023081;28;20475;-80
2021/10/18 05:28:39;;;;;;;37.70;17.45;;;;;;;;;;5037577;28;20050;-81
2021/10/18 05:31:06;;;;;;;36.35;16.02;;;;;;;;;;5037387;28;20061;-80
2021/10/18 05:33:33;;;;;;;41.13;18.75;;;;;;;;;;5037791;28;20560;-81
2021/10/18 05:35:59;;;;;;;45.67;19.77;;;;;;;;;;5037921;28;20046;-80
2021/10/18 05:38:27;;;;;;;36.40;17.45;;;;;;;;;;5037589;28;20667;-80
2021/10/18 05:40:54;;;;;;;36.33;17.33;;;;;;;;;;5039396;28;20099;-82
2021/10/18 05:43:20;;;;;;;39.53;17.35;;;;;;;;;;5041869;28;20062;-79
2021/10/18 05:45:47;;;;;;;34.65;16.15;;;;;;;;;;5031773;28;20442;-81
2021/10/18 05:48:15;;;;;;;40.80;17.98;;;;;;;;;;5026388;28;20052;-80
2021/10/18 05:50:44;;;;;;;40.25;16.88;;;;;;;;;;5036120;28;20041;-80
2021/10/18 05:53:10;;;;;;;48.25;18.08;;;;;;;;;;5037494;28;20767;-80
2021/10/18 05:55:38;;;;;;;35.33;17.05;;;;;;;;;;5037730;28;20552;-81
2021/10/18 05:58:06;;;;;;;41.00;17.38;;;;;;;;;;5036768;28;20600;-79
2021/10/18 06:00:35;;;;;;;40.83;18.35;;;;;;;;;;5037720;28;20494;-79
2021/10/18 06:03:01;;;;;;;45.78;16.58;;;;;;;;;;5036547;28;20045;-79
2021/10/18 06:05:28;;;;;;;33.97;15.75;;;;;;;;;;5037140;28;20049;-79
2021/10/18 06:08:03;;;;;;;35.17;15.85;;;;;;;;;;5036795;28;20633;-80
2021/10/18 06:10:30;;;;;;;45.92;18.30;;;;;;;;;;5038100;28;20052;-79
2021/10/18 06:12:57;;;;;;;31.05;15.63;;;;;;;;;;5036833;28;20049;-80
2021/10/18 06:15:24;;;;;;;34.33;17.17;;;;;;;;;;5037028;28;20437;-80
2021/10/18 06:17:51;;;;;;;34.97;14.75;;;;;;;;;;5042181;28;20465;-80
2021/10/18 06:20:19;;;;;;;34.42;16.23;;;;;;;;;;5037623;28;20164;-80
2021/10/18 06:22:46;;;;;;;35.05;16.10;;;;;;;;;;5037953;28;20488;-80
2021/10/18 06:25:12;;;;;;;36.38;17.20;;;;;;;;;;5036936;28;20052;-80
2021/10/18 06:27:39;;;;;;;33.55;15.50;;;;;;;;;;5037146;28;20066;-81
2021/10/18 06:30:08;;;;;;;33.88;15.80;;;;;;;;;;5033462;28;20053;-80
2021/10/18 06:32:34;;;;;;;37.15;16.10;;;;;;;;;;5037024;28;20061;-80
2021/10/18 06:35:01;;;;;;;33.35;13.95;;;;;;;;;;5043091;28;20048;-81
2021/10/18 06:37:28;;;;;;;27.85;14.25;;;;;;;;;;5045686;28;20103;-80
2021/10/18 06:39:55;;;;;;;30.98;13.63;;;;;;;;;;5037352;28;20437;-80
2021/10/18 06:42:21;;;;;;;32.72;13.95;;;;;;;;;;5036668;28;20054;-80
2021/10/18 06:44:47;;;;;;;30.73;14.20;;;;;;;;;;5036870;28;20545;-80
2021/10/18 06:47:16;;;;;;;28.80;13.23;;;;;;;;;;5036395;28;20103;-81
2021/10/18 06:49:43;;;;;;;33.22;14.38;;;;;;;;;;5036641;28;20038;-80
2021/10/18 06:52:10;;;;;;;28.55;12.95;;;;;;;;;;5036785;28;20041;-79
2021/10/18 06:54:38;;;;;;;30.27;13.60;;;;;;;;;;5037500;28;20049;-80
2021/10/18 06:57:05;;;;;;;31.08;15.18;;;;;;;;;;5037601;28;20045;-80
2021/10/18 06:59:32;;;;;;;33.10;14.65;;;;;;;;;;5036276;28;20057;-81
2021/10/18 07:01:58;;;;;;;27.35;14.02;;;;;;;;;;5037595;28;20135;-80
2021/10/18 07:04:29;;;;;;;29.52;13.70;;;;;;;;;;5037259;28;20037;-79
2021/10/18 07:06:56;;;;;;;25.48;12.55;;;;;;;;;;5036921;28;20298;-80
2021/10/18 07:09:24;;;;;;;28.52;12.32;;;;;;;;;;5037195;28;20046;-80
2021/10/18 07:11:50;;;;;;;26.63;12.35;;;;;;;;;;5037407;28;20521;-82
2021/10/18 07:14:16;;;;;;;21.77;10.57;;;;;;;;;;5037035;28;20053;-81
2021/10/18 07:16:43;;;;;;;26.88;11.98;;;;;;;;;;5036562;28;20049;-79
2021/10/18 07:19:09;;;;;;;27.05;12.35;;;;;;;;;;5037116;28;20045;-80
2021/10/18 07:21:37;;;;;;;27.63;13.82;;;;;;;;;;5031501;28;20064;-80
2021/10/18 07:24:05;;;;;;;29.15;12.70;;;;;;;;;;5036308;28;20038;-81
2021/10/18 07:26:32;;;;;;;26.73;12.60;;;;;;;;;;5036379;28;20121;-81
2021/10/18 07:28:58;;;;;;;25.85;12.93;;;;;;;;;;5036249;28;20506;-81
2021/10/18 07:31:25;;;;;;;23.90;11.43;;;;;;;;;;5034946;28;20046;-81
2021/10/18 07:33:54;;;;;;;24.00;12.85;;;;;;;;;;5036163;28;20075;-80
2021/10/18 07:36:24;;;;;;;24.23;12.13;;;;;;;;;;5036122;28;20041;-81
2021/10/18 07:38:52;;;;;;;26.08;11.73;;;;;;;;;;5036010;28;20084;-81
2021/10/18 07:41:21;;;;;;;28.00;12.95;;;;;;;;;;5031785;28;20041;-81
2021/10/18 07:43:48;;;;;;;24.10;11.57;;;;;;;;;;5027711;28;20427;-80
2021/10/18 07:46:17;;;;;;;25.80;12.32;;;;;;;;;;5034576;28;20068;-80
2021/10/18 07:48:43;;;;;;;26.80;11.70;;;;;;;;;;5035718;28;20061;-81
2021/10/18 07:51:09;;;;;;;26.00;12.00;;;;;;;;;;5031101;28;20041;-80
2021/10/18 07:53:36;;;;;;;23.60;11.07;;;;;;;;;;5036703;28;20064;-80
2021/10/18 07:56:04;;;;;;;25.48;11.40;;;;;;;;;;5036403;28;20049;-81
2021/10/18 07:58:30;;;;;;;24.10;11.38;;;;;;;;;;5035613;28;20410;-80
2021/10/18 08:00:57;;;;;;;22.58;10.90;;;;;;;;;;5036762;28;20045;-80
2021/10/18 08:03:23;;;;;;;25.42;12.75;;;;;;;;;;5036030;28;20065;-80
2021/10/18 08:05:51;;;;;;;22.60;11.85;;;;;;;;;;5035616;28;20045;-81
2021/10/18 08:08:21;;;;;;;23.35;11.15;;;;;;;;;;5036541;28;20494;-82
2021/10/18 08:10:48;;;;;;;23.10;10.82;;;;;;;;;;5035332;28;20544;-80
2021/10/18 08:13:16;;;;;;;21.85;11.25;;;;;;;;;;5036274;28;20129;-81
2021/10/18 08:15:42;;;;;;;22.17;10.20;;;;;;;;;;5035870;28;20088;-80
2021/10/18 08:18:09;;;;;;;21.55;11.55;;;;;;;;;;5034946;28;20041;-81
2021/10/18 08:20:37;;;;;;;21.38;10.50;;;;;;;;;;5036090;28;20053;-81
2021/10/18 08:23:04;;;;;;;22.15;12.60;;;;;;;;;;5035136;28;20051;-81
2021/10/18 08:25:30;;;;;;;25.77;11.25;;;;;;;;;;5035433;28;20052;-81
2021/10/18 08:27:57;;;;;;;29.45;12.90;;;;;;;;;;5035090;28;20633;-79
2021/10/18 08:30:24;;;;;;;24.17;11.48;;;;;;;;;;5035575;28;20044;-81
2021/10/18 08:32:51;;;;;;;23.05;12.25;;;;;;;;;;5036565;28;20050;-80
2021/10/18 08:35:19;;;;;;;21.63;10.85;;;;;;;;;;5029050;28;20045;-81
2021/10/18 08:40:31;;;;;;;22.83;11.40;;;;;;;;;;5023647;28;20096;-81
2021/10/18 08:43:01;;;;;;;21.88;11.63;;;;;;;;;;5018392;28;20144;-81
2021/10/18 08:45:29;;;;;;;22.10;10.68;;;;;;;;;;5033387;28;20545;-80
2021/10/18 08:47:56;;;;;;;21.48;11.13;;;;;;;;;;5034595;28;20062;-81
2021/10/18 08:50:23;;;;;;;21.15;11.57;;;;;;;;;;5035090;28;20065;-79
2021/10/18 08:52:49;;;;;;;20.80;11.60;;;;;;;;;;5034428;28;20092;-81
2021/10/18 08:55:16;;;;;;;20.88;11.77;;;;;;;;;;5035086;28;20107;-80
2021/10/18 08:57:42;;;;;;;24.77;11.38;;;;;;;;;;5035225;28;20052;-78
2021/10/18 09:00:38;;;;;;;20.60;11.23;;;;;;;;;;5034592;28;20053;-79
2021/10/18 09:03:18;;;;;;;22.25;11.55;;;;;;;;;;5034890;28;20049;-80
2021/10/18 09:05:45;;;;;;;23.30;12.20;;;;;;;;;;5035156;28;20049;-79
2021/10/18 09:08:32;;;;;;;22.77;11.20;;;;;;;;;;5035616;28;20049;-80
2021/10/18 09:11:07;;;;;;;23.70;11.32;;;;;;;;;;5035720;28;20103;-80
2021/10/18 09:13:33;;;;;;;23.83;11.80;;;;;;;;;;5035479;28;20037;-80
2021/10/18 09:16:01;;;;;;;22.25;12.05;;;;;;;;;;5035155;28;20045;-80
2021/10/18 09:18:28;;;;;;;24.42;12.23;;;;;;;;;;5034154;28;20053;-80
2021/10/18 09:20:55;;;;;;;22.45;11.90;;;;;;;;;;5035610;28;20053;-80
2021/10/18 09:23:27;;;;;;;20.67;10.55;;;;;;;;;;5035376;28;20123;-80
2021/10/18 09:25:58;;;;;;;23.73;10.85;;;;;;;;;;5034863;28;20100;-80
2021/10/18 09:28:26;;;;;;;18.55;11.52;;;;;;;;;;5028477;28;20080;-81
2021/10/18 09:30:52;;;;;;;20.58;10.98;;;;;;;;;;5034572;28;20050;-79
2021/10/18 09:33:24;;;;;;;18.15;10.38;;;;;;;;;;5032040;28;20042;-81
2021/10/18 09:35:51;;;;;;;21.52;10.30;;;;;;;;;;5030966;28;20073;-80
2021/10/18 09:38:20;;;;;;;18.17;11.00;;;;;;;;;;5033790;28;20054;-79
2021/10/18 09:40:48;;;;;;;19.02;10.85;;;;;;;;;;5035202;28;20053;-80
2021/10/18 09:43:20;;;;;;;19.98;10.43;;;;;;;;;;5033967;28;20057;-79
2021/10/18 09:46:08;;;;;;;19.50;11.32;;;;;;;;;;5033407;28;20053;-81
2021/10/18 10:53:20;;;;;;;20.52;12.88;;;;;;;;;;5033777;28;20073;-77
2021/10/18 10:55:49;;;;;;;27.80;13.93;;;;;;;;;;5035363;28;20053;-79
2021/10/18 10:58:36;;;;;;;46.97;22.67;;;;;;;;;;5036354;28;20049;-79
2021/10/18 11:01:03;;;;;;;28.50;16.45;;;;;;;;;;5035143;28;20508;-79
2021/10/18 11:03:39;;;;;;;20.33;13.80;;;;;;;;;;5036394;28;20052;-80
2021/10/18 11:06:07;;;;;;;21.45;11.95;;;;;;;;;;5034256;28;20128;-81
2021/10/18 11:08:35;;;;;;;23.73;13.68;;;;;;;;;;5034799;28;20053;-80
2021/10/18 11:11:17;;;;;;;22.42;12.38;;;;;;;;;;5035763;28;20045;-80
2021/10/18 11:13:45;;;;;;;24.95;13.77;;;;;;;;;;5029978;28;20490;-81
2021/10/18 11:16:12;;;;;;;24.40;13.82;;;;;;;;;;5035018;28;20049;-81
2021/10/18 11:18:39;;;;;;;23.60;13.20;;;;;;;;;;5034964;28;20042;-81
2021/10/18 11:21:13;;;;;;;24.13;13.45;;;;;;;;;;5034643;28;20052;-81
2021/10/18 11:23:57;;;;;;;21.38;13.05;;;;;;;;;;5030272;28;20048;-81
2021/10/18 11:26:25;;;;;;;19.08;11.50;;;;;;;;;;5033575;28;20049;-80
2021/10/18 11:28:53;;;;;;;21.60;12.43;;;;;;;;;;5043852;28;20493;-81
2021/10/18 11:31:19;;;;;;;23.48;13.32;;;;;;;;;;5033153;28;20041;-80
2021/10/18 11:34:00;;;;;;;20.20;12.05;;;;;;;;;;5033822;28;20045;-80
2021/10/18 11:36:26;;;;;;;22.92;13.63;;;;;;;;;;5034916;28;20557;-80
2021/10/18 11:39:13;;;;;;;22.65;12.80;;;;;;;;;;5036522;28;20045;-80
2021/10/18 11:41:58;;;;;;;;;;;;;;;;;;5026153;28;20409;-81
2021/10/18 11:44:54;;;;;;;21.40;12.40;;;;;;;;;;5030794;28;20297;-80
2021/10/18 11:47:29;;;;;;;18.63;11.68;;;;;;;;;;5032027;28;20079;-80
2021/10/18 11:50:20;;;;;;;24.30;14.15;;;;;;;;;;5030182;28;20049;-80
2021/10/18 11:53:12;;;;;;;19.20;11.63;;;;;;;;;;5033411;28;20056;-81
2021/10/18 11:55:40;;;;;;;20.27;12.65;;;;;;;;;;5024594;28;20041;-80
2021/10/18 11:58:07;;;;;;;20.38;12.02;;;;;;;;;;5034224;28;20042;-80
2021/10/18 12:00:41;;;;;;;23.85;13.05;;;;;;;;;;5037820;28;20049;-80
2021/10/18 12:03:09;;;;;;;20.55;12.25;;;;;;;;;;5034850;28;20128;-80
2021/10/18 12:05:38;;;;;;;21.05;12.82;;;;;;;;;;5042767;28;20494;-80
2021/10/18 12:08:05;;;;;;;23.20;11.55;;;;;;;;;;5035255;28;20509;-81
2021/10/18 12:10:32;;;;;;;21.35;12.90;;;;;;;;;;5035258;28;20111;-81
2021/10/18 12:13:13;;;;;;;21.48;12.82;;;;;;;;;;5035380;28;20045;-80
2021/10/18 12:15:46;;;;;;;23.00;13.30;;;;;;;;;;5035039;28;20049;-81
2021/10/18 12:18:12;;;;;;;21.15;12.75;;;;;;;;;;5035406;28;20046;-81
2021/10/18 12:20:41;;;;;;;22.50;13.38;;;;;;;;;;5034387;28;20116;-80
2021/10/18 12:23:09;;;;;;;21.83;13.20;;;;;;;;;;5034704;28;20053;-80
2021/10/18 12:25:38;;;;;;;21.45;12.63;;;;;;;;;;5035382;28;20084;-81
2021/10/18 12:28:42;;;;;;;20.38;12.63;;;;;;;;;;5030812;28;20041;-80
2021/10/18 12:34:24;;;;;;;18.52;12.48;;;;;;;;;;5079359;27;20417;-80
2021/10/18 12:37:02;;;;;;;22.10;12.25;;;;;;;;;;5071837;28;20131;-80
2021/10/18 12:39:40;;;;;;;22.83;13.20;;;;;;;;;;5071201;28;20048;-80
2021/10/18 12:42:07;;;;;;;21.70;12.65;;;;;;;;;;5070502;28;20056;-80
2021/10/18 12:44:36;;;;;;;21.00;13.07;;;;;;;;;;5072541;28;20052;-81
2021/10/18 12:47:03;;;;;;;21.13;13.05;;;;;;;;;;5070835;28;20044;-81
2021/10/18 12:49:32;;;;;;;24.42;13.60;;;;;;;;;;5075488;28;20041;-80
2021/10/18 12:52:02;;;;;;;25.85;13.95;;;;;;;;;;5072452;28;20137;-81
2021/10/18 12:54:37;;;;;;;21.75;13.13;;;;;;;;;;5058223;28;20041;-81
2021/10/18 12:57:05;;;;;;;22.83;12.88;;;;;;;;;;5078899;28;20041;-81
2021/10/18 12:59:34;;;;;;;21.40;12.90;;;;;;;;;;5072013;28;20040;-81
2021/10/18 13:02:23;;;;;;;23.13;14.05;;;;;;;;;;5081072;28;20052;-81
2021/10/18 13:05:18;;;;;;;21.63;13.52;;;;;;;;;;5062195;28;20076;-79
2021/10/18 13:07:50;;;;;;;24.17;14.88;;;;;;;;;;5047200;28;20390;-79
2021/10/18 13:10:16;;;;;;;19.10;11.88;;;;;;;;;;5087696;28;20056;-81
2021/10/18 13:12:44;;;;;;;20.15;12.65;;;;;;;;;;5085710;28;20070;-79
2021/10/18 13:15:11;;;;;;;26.85;15.57;;;;;;;;;;5082976;28;20037;-79
2021/10/18 13:17:37;;;;;;;24.08;13.38;;;;;;;;;;5090720;28;20048;-82
2021/10/18 13:20:06;;;;;;;22.85;14.45;;;;;;;;;;5070344;28;20049;-79
2021/10/18 13:22:34;;;;;;;23.00;14.35;;;;;;;;;;5068087;28;20412;-80
2021/10/18 13:25:01;;;;;;;19.55;13.13;;;;;;;;;;5066642;28;20687;-80
2021/10/18 13:27:27;;;;;;;24.13;15.13;;;;;;;;;;5066025;28;20625;-79
2021/10/18 13:29:54;;;;;;;20.35;14.02;;;;;;;;;;5068333;28;20091;-79
2021/10/18 13:32:21;;;;;;;25.63;15.13;;;;;;;;;;5068476;28;20531;-80
2021/10/18 13:34:47;;;;;;;24.00;14.25;;;;;;;;;;5068240;28;20053;-79
2021/10/18 13:37:15;;;;;;;23.70;14.77;;;;;;;;;;5068487;28;20045;-79
2021/10/18 13:39:43;;;;;;;34.47;16.35;;;;;;;;;;5068316;28;20049;-79
2021/10/18 13:42:10;;;;;;;24.35;15.00;;;;;;;;;;5066288;28;20044;-80
2021/10/18 13:44:38;;;;;;;22.23;14.52;;;;;;;;;;5059535;28;20045;-79
2021/10/18 13:47:04;;;;;;;23.17;13.45;;;;;;;;;;5055570;28;20049;-79
2021/10/18 13:49:31;;;;;;;20.90;14.20;;;;;;;;;;5055183;28;20126;-80
2021/10/18 13:51:58;;;;;;;27.02;14.75;;;;;;;;;;5055702;28;20045;-80
2021/10/18 13:54:24;;;;;;;22.23;14.32;;;;;;;;;;5055220;28;20053;-77
2021/10/18 13:56:52;;;;;;;20.02;14.13;;;;;;;;;;5054596;28;20395;-80
2021/10/18 13:59:18;;;;;;;23.10;14.55;;;;;;;;;;5054830;28;20044;-80
2021/10/18 14:01:46;;;;;;;21.50;13.77;;;;;;;;;;5055606;28;20099;-80
2021/10/18 14:04:16;;;;;;;19.27;13.10;;;;;;;;;;5054278;28;20510;-80
2021/10/18 14:06:43;;;;;;;20.50;13.73;;;;;;;;;;5054870;28;20426;-80
2021/10/18 14:09:10;;;;;;;21.10;13.00;;;;;;;;;;5052040;28;20127;-80
2021/10/18 14:11:37;;;;;;;22.75;14.50;;;;;;;;;;5054715;28;20413;-80
2021/10/18 14:14:06;;;;;;;22.33;13.18;;;;;;;;;;5055270;28;20045;-80
2021/10/18 14:16:33;;;;;;;19.85;13.65;;;;;;;;;;5054642;28;20045;-80
2021/10/18 14:19:00;;;;;;;21.77;14.20;;;;;;;;;;5054965;28;20456;-79
2021/10/18 14:21:26;;;;;;;22.73;14.57;;;;;;;;;;5053600;28;20044;-79
2021/10/18 14:23:53;;;;;;;20.83;13.77;;;;;;;;;;5053376;28;20440;-79
2021/10/18 14:26:19;;;;;;;21.50;15.23;;;;;;;;;;5054185;28;20045;-80
2021/10/18 14:28:46;;;;;;;22.05;15.02;;;;;;;;;;5053364;28;20049;-79
2021/10/18 14:31:14;;;;;;;22.17;14.07;;;;;;;;;;5054697;28;20049;-79
2021/10/18 14:33:41;;;;;;;21.83;12.93;;;;;;;;;;5055220;28;20044;-80
2021/10/18 14:36:08;;;;;;;21.67;13.82;;;;;;;;;;5053786;28;20049;-79
2021/10/18 14:38:35;;;;;;;20.25;14.10;;;;;;;;;;5054734;28;20079;-80
2021/10/18 14:41:01;;;;;;;20.73;13.90;;;;;;;;;;5053714;28;20037;-79
2021/10/18 14:43:28;;;;;;;20.23;14.00;;;;;;;;;;5051757;28;20075;-80
2021/10/18 14:45:54;;;;;;;25.23;14.40;;;;;;;;;;5054669;28;20436;-79
2021/10/18 14:48:22;;;;;;;22.90;14.23;;;;;;;;;;5054168;28;20048;-79
2021/10/18 14:50:48;;;;;;;21.08;13.90;;;;;;;;;;5053888;28;20043;-79
2021/10/18 14:53:15;;;;;;;23.60;14.90;;;;;;;;;;5054900;28;20136;-79
2021/10/18 14:55:41;;;;;;;20.85;14.23;;;;;;;;;;5056186;28;20039;-78
2021/10/18 14:58:08;;;;;;;21.85;14.45;;;;;;;;;;5054791;28;20063;-79
2021/10/18 15:00:35;;;;;;;22.25;13.63;;;;;;;;;;5056527;28;20041;-78
2021/10/18 15:03:02;;;;;;;21.17;13.38;;;;;;;;;;5059779;28;20076;-78
2021/10/18 15:05:30;;;;;;;19.00;13.00;;;;;;;;;;5062343;28;20079;-80
2021/10/18 15:07:56;;;;;;;21.20;13.68;;;;;;;;;;5055183;28;20417;-80
2021/10/18 15:10:25;;;;;;;20.42;13.10;;;;;;;;;;5054796;28;20052;-79
2021/10/18 15:12:52;;;;;;;23.25;13.52;;;;;;;;;;5068614;28;20094;-78
2021/10/18 15:15:19;;;;;;;22.40;13.88;;;;;;;;;;5058247;28;20048;-79
2021/10/18 15:17:50;;;;;;;22.60;14.98;;;;;;;;;;5057433;28;20049;-78
2021/10/18 15:20:17;;;;;;;23.83;13.73;;;;;;;;;;5052848;28;20040;-78
2021/10/18 15:22:45;;;;;;;18.35;12.90;;;;;;;;;;5062764;28;20052;-79
2021/10/18 15:25:13;;;;;;;22.23;14.95;;;;;;;;;;5056816;28;20049;-80
2021/10/18 15:27:41;;;;;;;20.70;13.00;;;;;;;;;;5053944;28;20044;-78
2021/10/18 15:30:10;;;;;;;20.10;13.50;;;;;;;;;;5055373;28;20051;-79
2021/10/18 15:32:37;;;;;;;20.35;14.02;;;;;;;;;;5054827;28;20040;-78
2021/10/18 15:35:05;;;;;;;26.63;15.25;;;;;;;;;;5054503;28;20041;-79